KSBO

East Georgia Regional Airport

Swainsboro, Georgia, USA
METAR KSBO 160550Z AUTO 00000KT 10SM CLR 23/22 A3013 RMK AO2
Observed Flight Rules
Aug-16 @ 05:50 UTC (25 minutes ago) Visual Flight Rules
Visibility Clouds
10 miles
  • Clear skies
Temperatures Readings
Current 23°C / 73°F
Dewpoint 22°C / 72°F
Humidity 94%
Altimeter 30.13" Hg
Pressure 1020 hPa
Elevation 100
METAR KSBO 160550Z AUTO 00000KT 10SM CLR 23/22 A3013 RMK AO2
Observed Flight Rules
Aug-16 @ 05:50 UTC
(25 minutes ago)
VFR
Clouds
  • Clear skies
Temperature Dewpoint
23°C / 73°F 22°C / 72°F
Humidity Altimeter Pressure
94% 30.13" Hg 1020 hPa